sensor_id;sensor_type;location;lat;lon;timestamp;pressure;altitude;pressure_sealevel;temperature;humidity
41632;BME280;37452;51.938;4.624;2023-02-26T00:00:08;78809.06;;;-142.75;100.00
41632;BME280;37452;51.938;4.624;2023-02-26T00:02:37;78813.00;;;-142.75;100.00
41632;BME280;37452;51.938;4.624;2023-02-26T00:05:03;78818.91;;;-142.75;100.00
41632;BME280;37452;51.938;4.624;2023-02-26T00:07:28;78809.06;;;-142.75;100.00
41632;BME280;37452;51.938;4.624;2023-02-26T00:09:54;78842.56;;;-142.75;100.00
41632;BME280;37452;51.938;4.624;2023-02-26T00:12:19;78834.69;;;-142.75;100.00
41632;BME280;37452;51.938;4.624;2023-02-26T00:14:45;78846.50;;;-142.75;100.00
41632;BME280;37452;51.938;4.624;2023-02-26T00:19:54;78854.38;;;-142.75;100.00
41632;BME280;37452;51.938;4.624;2023-02-26T00:22:19;78852.41;;;-142.75;100.00
41632;BME280;37452;51.938;4.624;2023-02-26T00:24:44;78854.38;;;-142.75;100.00
41632;BME280;37452;51.938;4.624;2023-02-26T00:27:10;78868.16;;;-142.75;100.00
41632;BME280;37452;51.938;4.624;2023-02-26T00:29:36;78860.28;;;-142.75;100.00
41632;BME280;37452;51.938;4.624;2023-02-26T00:32:01;78854.38;;;-142.75;100.00
41632;BME280;37452;51.938;4.624;2023-02-26T00:34:27;78846.50;;;-142.75;100.00
41632;BME280;37452;51.938;4.624;2023-02-26T00:37:54;78866.19;;;-142.75;100.00
41632;BME280;37452;51.938;4.624;2023-02-26T00:39:54;78881.94;;;-142.75;100.00
41632;BME280;37452;51.938;4.624;2023-02-26T00:42:22;78878.00;;;-142.75;100.00
41632;BME280;37452;51.938;4.624;2023-02-26T00:44:47;78866.19;;;-142.75;100.00
41632;BME280;37452;51.938;4.624;2023-02-26T00:47:16;78891.78;;;-142.75;100.00
41632;BME280;37452;51.938;4.624;2023-02-26T00:52:14;78893.78;;;-142.75;100.00
41632;BME280;37452;51.938;4.624;2023-02-26T00:54:43;78897.72;;;-142.75;100.00
41632;BME280;37452;51.938;4.624;2023-02-26T00:57:09;78901.66;;;-142.75;100.00
41632;BME280;37452;51.938;4.624;2023-02-26T00:59:34;78901.66;;;-142.75;100.00
41632;BME280;37452;51.938;4.624;2023-02-26T01:01:59;78901.66;;;-142.75;100.00
41632;BME280;37452;51.938;4.624;2023-02-26T01:04:24;78874.06;;;-142.75;100.00
41632;BME280;37452;51.938;4.624;2023-02-26T01:06:51;78866.19;;;-142.75;100.00
41632;BME280;37452;51.938;4.624;2023-02-26T01:11:49;78850.44;;;-142.75;100.00
41632;BME280;37452;51.938;4.624;2023-02-26T01:14:15;78854.38;;;-142.75;100.00
41632;BME280;37452;51.938;4.624;2023-02-26T01:19:36;78822.88;;;-142.75;100.00
41632;BME280;37452;51.938;4.624;2023-02-26T01:22:07;78828.78;;;-142.75;100.00
41632;BME280;37452;51.938;4.624;2023-02-26T01:24:34;78830.75;;;-142.75;100.00
41632;BME280;37452;51.938;4.624;2023-02-26T01:27:00;78834.69;;;-142.75;100.00
41632;BME280;37452;51.938;4.624;2023-02-26T01:29:25;78830.75;;;-142.75;100.00
41632;BME280;37452;51.938;4.624;2023-02-26T01:34:33;78838.63;;;-142.75;100.00
41632;BME280;37452;51.938;4.624;2023-02-26T01:37:03;78832.72;;;-142.75;100.00
41632;BME280;37452;51.938;4.624;2023-02-26T01:39:34;78854.38;;;-142.75;100.00
41632;BME280;37452;51.938;4.624;2023-02-26T01:42:14;78876.03;;;-142.75;100.00
41632;BME280;37452;51.938;4.624;2023-02-26T01:44:47;78881.94;;;-142.75;100.00
41632;BME280;37452;51.938;4.624;2023-02-26T01:47:42;78903.63;;;-142.75;100.00
41632;BME280;37452;51.938;4.624;2023-02-26T01:50:10;78887.84;;;-142.75;100.00
41632;BME280;37452;51.938;4.624;2023-02-26T01:55:03;78911.50;;;-142.75;100.00
41632;BME280;37452;51.938;4.624;2023-02-26T01:57:28;78941.03;;;-142.75;100.00
41632;BME280;37452;51.938;4.624;2023-02-26T01:59:54;78952.84;;;-142.75;100.00
41632;BME280;37452;51.938;4.624;2023-02-26T02:02:20;78976.50;;;-142.75;100.00
41632;BME280;37452;51.938;4.624;2023-02-26T02:04:45;79011.94;;;-142.75;100.00
41632;BME280;37452;51.938;4.624;2023-02-26T02:07:11;79031.66;;;-142.75;100.00
41632;BME280;37452;51.938;4.624;2023-02-26T02:09:37;79035.59;;;-142.75;100.00
41632;BME280;37452;51.938;4.624;2023-02-26T02:14:32;79047.41;;;-142.75;100.00
41632;BME280;37452;51.938;4.624;2023-02-26T02:17:07;79047.41;;;-142.75;100.00
41632;BME280;37452;51.938;4.624;2023-02-26T02:19:47;79047.41;;;-142.75;100.00
41632;BME280;37452;51.938;4.624;2023-02-26T02:25:13;79055.28;;;-142.75;100.00
41632;BME280;37452;51.938;4.624;2023-02-26T02:27:46;79067.09;;;-142.75;100.00
41632;BME280;37452;51.938;4.624;2023-02-26T02:30:23;79061.19;;;-142.75;100.00
41632;BME280;37452;51.938;4.624;2023-02-26T02:33:00;79073.00;;;-142.75;100.00
41632;BME280;37452;51.938;4.624;2023-02-26T02:35:30;79076.94;;;-142.75;100.00
41632;BME280;37452;51.938;4.624;2023-02-26T02:38:03;79074.97;;;-142.75;100.00
41632;BME280;37452;51.938;4.624;2023-02-26T02:40:31;79074.97;;;-142.75;100.00
41632;BME280;37452;51.938;4.624;2023-02-26T02:42:59;79074.97;;;-142.75;100.00
41632;BME280;37452;51.938;4.624;2023-02-26T02:45:26;79071.03;;;-142.75;100.00
41632;BME280;37452;51.938;4.624;2023-02-26T02:47:56;79092.69;;;-142.75;100.00
41632;BME280;37452;51.938;4.624;2023-02-26T02:50:37;79082.84;;;-142.75;100.00
41632;BME280;37452;51.938;4.624;2023-02-26T02:53:12;79078.91;;;-142.75;100.00
41632;BME280;37452;51.938;4.624;2023-02-26T02:55:40;79078.91;;;-142.75;100.00
41632;BME280;37452;51.938;4.624;2023-02-26T02:58:11;79088.75;;;-142.75;100.00
41632;BME280;37452;51.938;4.624;2023-02-26T03:00:39;79078.91;;;-142.75;100.00
41632;BME280;37452;51.938;4.624;2023-02-26T03:05:50;79076.94;;;-142.75;100.00
41632;BME280;37452;51.938;4.624;2023-02-26T03:08:16;79082.84;;;-142.75;100.00
41632;BME280;37452;51.938;4.624;2023-02-26T03:10:43;79086.78;;;-142.75;100.00
41632;BME280;37452;51.938;4.624;2023-02-26T03:13:27;79084.81;;;-142.75;100.00
41632;BME280;37452;51.938;4.624;2023-02-26T03:21:42;79067.09;;;-142.75;100.00
41632;BME280;37452;51.938;4.624;2023-02-26T03:27:28;79080.88;;;-142.75;100.00
41632;BME280;37452;51.938;4.624;2023-02-26T03:29:54;79071.03;;;-142.75;100.00
41632;BME280;37452;51.938;4.624;2023-02-26T03:32:38;79065.13;;;-142.75;100.00
41632;BME280;37452;51.938;4.624;2023-02-26T03:35:12;79074.97;;;-142.75;100.00
41632;BME280;37452;51.938;4.624;2023-02-26T03:37:39;79086.78;;;-142.75;100.00
41632;BME280;37452;51.938;4.624;2023-02-26T03:40:09;79088.75;;;-142.75;100.00
41632;BME280;37452;51.938;4.624;2023-02-26T03:42:40;79092.69;;;-142.75;100.00
41632;BME280;37452;51.938;4.624;2023-02-26T03:45:09;79084.81;;;-142.75;100.00
41632;BME280;37452;51.938;4.624;2023-02-26T03:47:36;79096.66;;;-142.75;100.00
41632;BME280;37452;51.938;4.624;2023-02-26T03:50:07;79102.56;;;-142.75;100.00
41632;BME280;37452;51.938;4.624;2023-02-26T03:52:35;79128.16;;;-142.75;100.00
41632;BME280;37452;51.938;4.624;2023-02-26T03:55:04;79134.06;;;-142.75;100.00
41632;BME280;37452;51.938;4.624;2023-02-26T03:57:30;79134.06;;;-142.75;100.00
41632;BME280;37452;51.938;4.624;2023-02-26T03:59:55;79130.13;;;-142.75;100.00
41632;BME280;37452;51.938;4.624;2023-02-26T04:02:31;79141.94;;;-142.75;100.00
41632;BME280;37452;51.938;4.624;2023-02-26T04:05:00;79141.94;;;-142.75;100.00
41632;BME280;37452;51.938;4.624;2023-02-26T04:07:26;79161.66;;;-142.75;100.00
41632;BME280;37452;51.938;4.624;2023-02-26T04:09:52;79149.81;;;-142.75;100.00
41632;BME280;37452;51.938;4.624;2023-02-26T04:12:21;79151.78;;;-142.75;100.00
41632;BME280;37452;51.938;4.624;2023-02-26T04:14:47;79179.38;;;-142.75;100.00
41632;BME280;37452;51.938;4.624;2023-02-26T04:17:12;79181.34;;;-142.75;100.00
41632;BME280;37452;51.938;4.624;2023-02-26T04:19:37;79179.38;;;-142.75;100.00
41632;BME280;37452;51.938;4.624;2023-02-26T04:22:02;79197.09;;;-142.75;100.00
41632;BME280;37452;51.938;4.624;2023-02-26T04:24:28;79185.28;;;-142.75;100.00
41632;BME280;37452;51.938;4.624;2023-02-26T04:26:53;79195.13;;;-142.75;100.00
41632;BME280;37452;51.938;4.624;2023-02-26T04:29:18;79197.09;;;-142.75;100.00
41632;BME280;37452;51.938;4.624;2023-02-26T04:31:43;79204.97;;;-142.75;100.00
41632;BME280;37452;51.938;4.624;2023-02-26T04:34:08;79206.94;;;-142.75;100.00
41632;BME280;37452;51.938;4.624;2023-02-26T04:36:34;79210.88;;;-142.75;100.00
41632;BME280;37452;51.938;4.624;2023-02-26T04:38:59;79232.56;;;-142.75;100.00
41632;BME280;37452;51.938;4.624;2023-02-26T04:41:24;79230.59;;;-142.75;100.00
41632;BME280;37452;51.938;4.624;2023-02-26T04:43:49;79224.69;;;-142.75;100.00
41632;BME280;37452;51.938;4.624;2023-02-26T04:46:14;79224.69;;;-142.75;100.00
41632;BME280;37452;51.938;4.624;2023-02-26T04:48:40;79226.66;;;-142.75;100.00
41632;BME280;37452;51.938;4.624;2023-02-26T04:51:05;79244.38;;;-142.75;100.00
41632;BME280;37452;51.938;4.624;2023-02-26T04:53:30;79260.13;;;-142.75;100.00
41632;BME280;37452;51.938;4.624;2023-02-26T04:55:55;79262.09;;;-142.75;100.00
41632;BME280;37452;51.938;4.624;2023-02-26T04:58:21;79273.91;;;-142.75;100.00
41632;BME280;37452;51.938;4.624;2023-02-26T05:00:49;79307.41;;;-142.75;100.00
41632;BME280;37452;51.938;4.624;2023-02-26T05:03:15;79311.34;;;-142.75;100.00
41632;BME280;37452;51.938;4.624;2023-02-26T05:05:40;79319.22;;;-142.75;100.00
41632;BME280;37452;51.938;4.624;2023-02-26T05:08:06;79315.28;;;-142.75;100.00
41632;BME280;37452;51.938;4.624;2023-02-26T05:10:31;79327.09;;;-142.75;100.00
41632;BME280;37452;51.938;4.624;2023-02-26T05:12:56;79323.16;;;-142.75;100.00
41632;BME280;37452;51.938;4.624;2023-02-26T05:15:21;79307.41;;;-142.75;100.00
41632;BME280;37452;51.938;4.624;2023-02-26T05:17:47;79305.44;;;-142.75;100.00
41632;BME280;37452;51.938;4.624;2023-02-26T05:20:12;79307.41;;;-142.75;100.00
41632;BME280;37452;51.938;4.624;2023-02-26T05:22:37;79313.31;;;-142.75;100.00
41632;BME280;37452;51.938;4.624;2023-02-26T05:25:03;79321.19;;;-142.75;100.00
41632;BME280;37452;51.938;4.624;2023-02-26T05:27:29;79331.03;;;-142.75;100.00
41632;BME280;37452;51.938;4.624;2023-02-26T05:29:54;79346.81;;;-142.75;100.00
41632;BME280;37452;51.938;4.624;2023-02-26T05:32:19;79344.84;;;-142.75;100.00
41632;BME280;37452;51.938;4.624;2023-02-26T05:34:44;79338.94;;;-142.75;100.00
41632;BME280;37452;51.938;4.624;2023-02-26T05:37:09;79344.84;;;-142.75;100.00
41632;BME280;37452;51.938;4.624;2023-02-26T05:39:35;79362.56;;;-142.75;100.00
41632;BME280;37452;51.938;4.624;2023-02-26T05:42:00;79374.38;;;-142.75;100.00
41632;BME280;37452;51.938;4.624;2023-02-26T05:44:25;79382.25;;;-142.75;100.00
41632;BME280;37452;51.938;4.624;2023-02-26T05:46:50;79401.97;;;-142.75;100.00
41632;BME280;37452;51.938;4.624;2023-02-26T05:49:16;79413.78;;;-142.75;100.00
41632;BME280;37452;51.938;4.624;2023-02-26T05:51:41;79407.88;;;-142.75;100.00
41632;BME280;37452;51.938;4.624;2023-02-26T05:54:07;79417.72;;;-142.75;100.00
41632;BME280;37452;51.938;4.624;2023-02-26T05:56:32;79421.66;;;-142.75;100.00
41632;BME280;37452;51.938;4.624;2023-02-26T05:58:57;79423.63;;;-142.75;100.00
41632;BME280;37452;51.938;4.624;2023-02-26T06:01:22;79409.84;;;-142.75;100.00
41632;BME280;37452;51.938;4.624;2023-02-26T06:03:48;79439.38;;;-142.75;100.00
41632;BME280;37452;51.938;4.624;2023-02-26T06:06:13;79461.06;;;-142.75;100.00
41632;BME280;37452;51.938;4.624;2023-02-26T06:08:40;79472.88;;;-142.75;100.00
41632;BME280;37452;51.938;4.624;2023-02-26T06:11:05;79482.72;;;-142.75;100.00
41632;BME280;37452;51.938;4.624;2023-02-26T06:13:31;79476.81;;;-142.75;100.00
41632;BME280;37452;51.938;4.624;2023-02-26T06:15:56;79466.97;;;-142.75;100.00
41632;BME280;37452;51.938;4.624;2023-02-26T06:18:21;79480.75;;;-142.75;100.00
41632;BME280;37452;51.938;4.624;2023-02-26T06:20:47;79494.53;;;-142.75;100.00
41632;BME280;37452;51.938;4.624;2023-02-26T06:23:12;79482.72;;;-142.75;100.00
41632;BME280;37452;51.938;4.624;2023-02-26T06:25:39;79484.69;;;-142.75;100.00
41632;BME280;37452;51.938;4.624;2023-02-26T06:28:04;79463.03;;;-142.75;100.00
41632;BME280;37452;51.938;4.624;2023-02-26T06:30:29;79455.16;;;-142.75;100.00
41632;BME280;37452;51.938;4.624;2023-02-26T06:32:54;79445.28;;;-142.75;100.00
41632;BME280;37452;51.938;4.624;2023-02-26T06:35:20;79443.31;;;-142.75;100.00
41632;BME280;37452;51.938;4.624;2023-02-26T06:37:45;79476.81;;;-142.75;100.00
41632;BME280;37452;51.938;4.624;2023-02-26T06:40:10;79490.59;;;-142.75;100.00
41632;BME280;37452;51.938;4.624;2023-02-26T06:42:36;79502.44;;;-142.75;100.00
41632;BME280;37452;51.938;4.624;2023-02-26T06:45:01;79496.50;;;-142.75;100.00
41632;BME280;37452;51.938;4.624;2023-02-26T06:47:26;79478.78;;;-142.75;100.00
41632;BME280;37452;51.938;4.624;2023-02-26T06:49:51;79461.06;;;-142.75;100.00
41632;BME280;37452;51.938;4.624;2023-02-26T06:52:17;79437.41;;;-142.75;100.00
41632;BME280;37452;51.938;4.624;2023-02-26T06:54:42;79421.66;;;-142.75;100.00
41632;BME280;37452;51.938;4.624;2023-02-26T06:57:07;79384.22;;;-142.75;100.00
41632;BME280;37452;51.938;4.624;2023-02-26T06:59:32;79382.25;;;-142.75;100.00
41632;BME280;37452;51.938;4.624;2023-02-26T07:01:58;79388.16;;;-142.75;100.00
41632;BME280;37452;51.938;4.624;2023-02-26T07:04:23;79398.03;;;-142.75;100.00
41632;BME280;37452;51.938;4.624;2023-02-26T07:06:48;79374.38;;;-142.75;100.00
41632;BME280;37452;51.938;4.624;2023-02-26T07:09:13;79362.56;;;-142.75;100.00
41632;BME280;37452;51.938;4.624;2023-02-26T07:11:39;79348.78;;;-142.75;100.00
41632;BME280;37452;51.938;4.624;2023-02-26T07:14:04;79331.03;;;-142.75;100.00
41632;BME280;37452;51.938;4.624;2023-02-26T07:16:29;79333.00;;;-142.75;100.00
41632;BME280;37452;51.938;4.624;2023-02-26T07:18:54;79356.66;;;-142.75;100.00
41632;BME280;37452;51.938;4.624;2023-02-26T07:21:19;79323.16;;;-142.75;100.00
41632;BME280;37452;51.938;4.624;2023-02-26T07:23:45;79289.69;;;-142.75;100.00
41632;BME280;37452;51.938;4.624;2023-02-26T07:26:10;79283.78;;;-142.75;100.00
41632;BME280;37452;51.938;4.624;2023-02-26T07:28:35;79299.53;;;-142.75;100.00
41632;BME280;37452;51.938;4.624;2023-02-26T07:31:00;79301.50;;;-142.75;100.00
41632;BME280;37452;51.938;4.624;2023-02-26T07:33:26;79248.31;;;-142.75;100.00
41632;BME280;37452;51.938;4.624;2023-02-26T07:35:52;79269.97;;;-142.75;100.00
41632;BME280;37452;51.938;4.624;2023-02-26T07:38:17;79230.59;;;-142.75;98.43
41632;BME280;37452;51.938;4.624;2023-02-26T07:40:43;79252.25;;;-142.75;97.20
41632;BME280;37452;51.938;4.624;2023-02-26T07:43:08;79275.88;;;-142.75;96.54
41632;BME280;37452;51.938;4.624;2023-02-26T07:45:33;79201.03;;;-142.75;96.82
41632;BME280;37452;51.938;4.624;2023-02-26T07:47:58;79189.22;;;-142.75;94.06
41632;BME280;37452;51.938;4.624;2023-02-26T07:50:24;79122.25;;;-142.75;93.06
41632;BME280;37452;51.938;4.624;2023-02-26T07:52:52;79138.00;;;-142.75;91.75
41632;BME280;37452;51.938;4.624;2023-02-26T07:55:18;79118.31;;;-142.75;90.78
41632;BME280;37452;51.938;4.624;2023-02-26T07:57:43;79106.50;;;-142.75;90.22
41632;BME280;37452;51.938;4.624;2023-02-26T08:00:08;79088.75;;;-142.75;91.71
41632;BME280;37452;51.938;4.624;2023-02-26T08:02:34;79098.63;;;-142.75;90.29
41632;BME280;37452;51.938;4.624;2023-02-26T08:04:59;79080.88;;;-142.75;90.19
41632;BME280;37452;51.938;4.624;2023-02-26T08:07:24;79061.19;;;-142.75;90.02
41632;BME280;37452;51.938;4.624;2023-02-26T08:09:50;79035.59;;;-142.75;89.90
41632;BME280;37452;51.938;4.624;2023-02-26T08:12:15;78996.19;;;-142.75;88.14
41632;BME280;37452;51.938;4.624;2023-02-26T08:14:40;78988.31;;;-142.75;86.50
41632;BME280;37452;51.938;4.624;2023-02-26T08:17:06;79017.84;;;-142.75;86.89
41632;BME280;37452;51.938;4.624;2023-02-26T08:19:31;79092.69;;;-142.75;85.08
41632;BME280;37452;51.938;4.624;2023-02-26T08:21:56;79076.94;;;-142.75;85.04
41632;BME280;37452;51.938;4.624;2023-02-26T08:24:22;79004.06;;;-142.75;85.89
41632;BME280;37452;51.938;4.624;2023-02-26T08:26:47;79071.03;;;-142.75;85.86
41632;BME280;37452;51.938;4.624;2023-02-26T08:29:12;79039.53;;;-142.75;85.33
41632;BME280;37452;51.938;4.624;2023-02-26T08:31:37;79041.50;;;-142.75;85.23
41632;BME280;37452;51.938;4.624;2023-02-26T08:34:02;79065.13;;;-142.75;85.50
41632;BME280;37452;51.938;4.624;2023-02-26T08:36:28;79023.75;;;-142.75;85.77
41632;BME280;37452;51.938;4.624;2023-02-26T08:38:53;78952.84;;;-142.75;83.73
41632;BME280;37452;51.938;4.624;2023-02-26T08:41:18;78978.47;;;-142.75;82.36
41632;BME280;37452;51.938;4.624;2023-02-26T08:43:44;78846.50;;;-142.75;81.57
41632;BME280;37452;51.938;4.624;2023-02-26T08:46:09;78814.97;;;-142.75;78.90
41632;BME280;37452;51.938;4.624;2023-02-26T08:48:34;78830.75;;;-142.75;78.08
41632;BME280;37452;51.938;4.624;2023-02-26T08:50:59;78838.63;;;-142.75;79.05
41632;BME280;37452;51.938;4.624;2023-02-26T08:53:25;78818.91;;;-142.75;77.84
41632;BME280;37452;51.938;4.624;2023-02-26T08:55:50;78818.91;;;-142.75;76.30
41632;BME280;37452;51.938;4.624;2023-02-26T08:58:16;78767.72;;;-142.75;77.26
41632;BME280;37452;51.938;4.624;2023-02-26T09:00:42;78769.69;;;-142.75;75.98
41632;BME280;37452;51.938;4.624;2023-02-26T09:03:07;78751.97;;;-142.75;73.40
41632;BME280;37452;51.938;4.624;2023-02-26T09:05:33;78838.63;;;-142.75;72.07
41632;BME280;37452;51.938;4.624;2023-02-26T09:07:58;78885.88;;;-142.75;74.26
41632;BME280;37452;51.938;4.624;2023-02-26T09:10:23;78826.81;;;-142.75;75.72
41632;BME280;37452;51.938;4.624;2023-02-26T09:12:48;78850.44;;;-142.75;74.82
41632;BME280;37452;51.938;4.624;2023-02-26T09:15:13;78814.97;;;-142.75;73.53
41632;BME280;37452;51.938;4.624;2023-02-26T09:17:39;78818.91;;;-142.75;73.96
41632;BME280;37452;51.938;4.624;2023-02-26T09:20:04;78732.25;;;-142.75;74.26
41632;BME280;37452;51.938;4.624;2023-02-26T09:22:30;78710.59;;;-142.75;72.11
41632;BME280;37452;51.938;4.624;2023-02-26T09:24:55;78655.44;;;-142.75;69.81
41632;BME280;37452;51.938;4.624;2023-02-26T09:27:21;78606.22;;;-142.75;70.39
41632;BME280;37452;51.938;4.624;2023-02-26T09:29:46;78683.03;;;-142.75;68.02
41632;BME280;37452;51.938;4.624;2023-02-26T09:32:12;78602.28;;;-142.75;68.31
41632;BME280;37452;51.938;4.624;2023-02-26T09:34:37;78657.41;;;-142.75;66.53
41632;BME280;37452;51.938;4.624;2023-02-26T09:37:03;78643.63;;;-142.75;64.50
41632;BME280;37452;51.938;4.624;2023-02-26T09:39:29;78728.31;;;-142.75;63.21
41632;BME280;37452;51.938;4.624;2023-02-26T09:41:55;78635.75;;;-142.75;61.32
41632;BME280;37452;51.938;4.624;2023-02-26T09:44:31;78710.59;;;-142.75;62.82
41632;BME280;37452;51.938;4.624;2023-02-26T09:49:34;78681.06;;;-142.75;61.54
41632;BME280;37452;51.938;4.624;2023-02-26T09:52:10;78706.66;;;-142.75;63.54
41632;BME280;37452;51.938;4.624;2023-02-26T09:54:42;78724.38;;;-142.75;65.70
41632;BME280;37452;51.938;4.624;2023-02-26T09:57:08;78661.34;;;-142.75;64.42
41632;BME280;37452;51.938;4.624;2023-02-26T09:59:35;78639.69;;;-142.75;62.09
41632;BME280;37452;51.938;4.624;2023-02-26T10:02:04;78606.22;;;-142.75;60.41
41632;BME280;37452;51.938;4.624;2023-02-26T10:04:39;78635.75;;;-142.75;58.73
41632;BME280;37452;51.938;4.624;2023-02-26T10:07:12;78580.59;;;-142.75;59.13
41632;BME280;37452;51.938;4.624;2023-02-26T10:09:58;78649.53;;;-142.75;62.82
41632;BME280;37452;51.938;4.624;2023-02-26T10:12:26;78602.28;;;-142.75;60.15
41632;BME280;37452;51.938;4.624;2023-02-26T10:15:04;78578.63;;;-142.75;60.75
41632;BME280;37452;51.938;4.624;2023-02-26T10:17:38;78618.03;;;-142.75;60.66
41632;BME280;37452;51.938;4.624;2023-02-26T10:20:13;78677.13;;;-142.75;59.83
41632;BME280;37452;51.938;4.624;2023-02-26T10:22:55;78570.75;;;-142.75;57.90
41632;BME280;37452;51.938;4.624;2023-02-26T10:25:22;78555.00;;;-142.75;57.54
41632;BME280;37452;51.938;4.624;2023-02-26T10:28:07;78598.34;;;-142.75;57.11
41632;BME280;37452;51.938;4.624;2023-02-26T10:30:45;78667.25;;;-142.75;57.85
41632;BME280;37452;51.938;4.624;2023-02-26T10:33:25;78537.28;;;-142.75;58.04
41632;BME280;37452;51.938;4.624;2023-02-26T10:35:54;78558.94;;;-142.75;57.54
41632;BME280;37452;51.938;4.624;2023-02-26T10:38:23;78537.28;;;-142.75;58.10
41632;BME280;37452;51.938;4.624;2023-02-26T10:40:54;78625.91;;;-142.75;57.52
41632;BME280;37452;51.938;4.624;2023-02-26T10:43:27;78547.13;;;-142.75;59.50
41632;BME280;37452;51.938;4.624;2023-02-26T10:46:03;78537.28;;;-142.75;57.98
41632;BME280;37452;51.938;4.624;2023-02-26T10:50:57;78486.06;;;-142.75;58.40
41632;BME280;37452;51.938;4.624;2023-02-26T10:53:23;78539.25;;;-142.75;59.84
41632;BME280;37452;51.938;4.624;2023-02-26T10:56:07;78517.59;;;-142.75;59.75
41632;BME280;37452;51.938;4.624;2023-02-26T10:58:33;78712.56;;;-142.75;62.91
41632;BME280;37452;51.938;4.624;2023-02-26T11:00:59;78659.38;;;-142.75;64.81
41632;BME280;37452;51.938;4.624;2023-02-26T11:03:31;78757.88;;;-142.75;64.08
41632;BME280;37452;51.938;4.624;2023-02-26T11:05:58;78763.78;;;-142.75;67.57
41632;BME280;37452;51.938;4.624;2023-02-26T11:08:27;78803.16;;;-142.75;66.55
41632;BME280;37452;51.938;4.624;2023-02-26T11:10:55;78803.16;;;-142.75;67.90
41632;BME280;37452;51.938;4.624;2023-02-26T11:13:22;78720.44;;;-142.75;70.98
41632;BME280;37452;51.938;4.624;2023-02-26T11:15:48;78773.63;;;-142.75;68.45
41632;BME280;37452;51.938;4.624;2023-02-26T11:18:16;78671.22;;;-142.75;68.72
41632;BME280;37452;51.938;4.624;2023-02-26T11:20:43;78653.47;;;-142.75;69.20
41632;BME280;37452;51.938;4.624;2023-02-26T11:23:16;78623.94;;;-142.75;67.46
41632;BME280;37452;51.938;4.624;2023-02-26T11:25:43;78590.47;;;-142.75;66.15
41632;BME280;37452;51.938;4.624;2023-02-26T11:28:25;78629.84;;;-142.75;65.58
41632;BME280;37452;51.938;4.624;2023-02-26T11:30:54;78505.78;;;-142.75;65.01
41632;BME280;37452;51.938;4.624;2023-02-26T11:35:46;78602.28;;;-142.75;62.37
41632;BME280;37452;51.938;4.624;2023-02-26T11:38:18;78576.66;;;-142.75;64.43
41632;BME280;37452;51.938;4.624;2023-02-26T11:40:45;78653.47;;;-142.75;65.92
41632;BME280;37452;51.938;4.624;2023-02-26T11:43:12;78574.69;;;-142.75;64.88
41632;BME280;37452;51.938;4.624;2023-02-26T11:45:39;78612.13;;;-142.75;65.67
41632;BME280;37452;51.938;4.624;2023-02-26T11:48:09;78594.41;;;-142.75;65.99
41632;BME280;37452;51.938;4.624;2023-02-26T11:50:38;78631.81;;;-142.75;65.99
41632;BME280;37452;51.938;4.624;2023-02-26T11:53:06;78730.28;;;-142.75;68.06
41632;BME280;37452;51.938;4.624;2023-02-26T11:55:37;78677.13;;;-142.75;66.37
41632;BME280;37452;51.938;4.624;2023-02-26T11:58:17;78775.59;;;-142.75;65.31
41632;BME280;37452;51.938;4.624;2023-02-26T12:00:43;78858.31;;;-142.75;66.95
41632;BME280;37452;51.938;4.624;2023-02-26T12:03:14;78716.50;;;-142.75;66.76
41632;BME280;37452;51.938;4.624;2023-02-26T12:05:39;78694.84;;;-142.75;64.44
41632;BME280;37452;51.938;4.624;2023-02-26T12:08:22;78753.94;;;-142.75;65.73
41632;BME280;37452;51.938;4.624;2023-02-26T12:13:25;78716.50;;;-142.75;65.56
41632;BME280;37452;51.938;4.624;2023-02-26T12:15:57;78686.97;;;-142.75;65.99
41632;BME280;37452;51.938;4.624;2023-02-26T12:26:27;78637.72;;;-142.75;63.54
41632;BME280;37452;51.938;4.624;2023-02-26T12:29:05;78610.16;;;-142.75;63.80
41632;BME280;37452;51.938;4.624;2023-02-26T12:31:38;78600.31;;;-142.75;62.45
41632;BME280;37452;51.938;4.624;2023-02-26T12:49:54;78562.88;;;-142.75;64.60
41632;BME280;37452;51.938;4.624;2023-02-26T12:55:10;78509.72;;;-142.75;63.47
41632;BME280;37452;51.938;4.624;2023-02-26T13:02:52;78513.66;;;-142.75;66.57
41632;BME280;37452;51.938;4.624;2023-02-26T13:08:11;78519.56;;;-142.75;68.56
41632;BME280;37452;51.938;4.624;2023-02-26T13:13:31;78673.19;;;-142.75;66.13
41632;BME280;37452;51.938;4.624;2023-02-26T13:19:13;78728.31;;;-142.75;66.98
41632;BME280;37452;51.938;4.624;2023-02-26T13:21:13;78757.88;;;-142.75;68.30
41632;BME280;37452;51.938;4.624;2023-02-26T13:26:24;78517.59;;;-142.75;68.32
41632;BME280;37452;51.938;4.624;2023-02-26T13:28:58;78665.28;;;-142.75;70.33
41632;BME280;37452;51.938;4.624;2023-02-26T13:31:33;78600.31;;;-142.75;71.56
41632;BME280;37452;51.938;4.624;2023-02-26T13:34:04;78614.09;;;-142.75;71.20
41632;BME280;37452;51.938;4.624;2023-02-26T13:36:31;78618.03;;;-142.75;71.86
41632;BME280;37452;51.938;4.624;2023-02-26T13:44:13;78675.16;;;-142.75;74.11
41632;BME280;37452;51.938;4.624;2023-02-26T13:49:25;78797.25;;;-142.75;76.86
41632;BME280;37452;51.938;4.624;2023-02-26T13:51:54;78809.06;;;-142.75;77.77
41632;BME280;37452;51.938;4.624;2023-02-26T14:01:54;78881.94;;;-142.75;79.22
41632;BME280;37452;51.938;4.624;2023-02-26T14:11:46;78826.81;;;-142.75;78.11
41632;BME280;37452;51.938;4.624;2023-02-26T14:19:22;78832.72;;;-142.75;81.87
41632;BME280;37452;51.938;4.624;2023-02-26T14:21:49;78818.91;;;-142.75;80.48
41632;BME280;37452;51.938;4.624;2023-02-26T14:24:22;78846.50;;;-142.75;79.93
41632;BME280;37452;51.938;4.624;2023-02-26T14:26:50;78822.88;;;-142.75;79.90
41632;BME280;37452;51.938;4.624;2023-02-26T14:29:37;78834.69;;;-142.75;80.25
41632;BME280;37452;51.938;4.624;2023-02-26T14:34:35;78824.84;;;-142.75;84.05